Time;durP1;ratioP1;P1;durP2;ratioP2;P2;SDS_P1;SDS_P2;PMS_P1;PMS_P2;Temp;Humidity;BMP_temperature;BMP_pressure;BME280_temperature;BME280_humidity;BME280_pressure;Samples;Min_cycle;Max_cycle;Signal;HPM_P1;HPM_P2
2023/01/12 00:08:19;;;;;;;;;2.75;1.00;;;;;21.03;46.88;101232.31;4974207;28;45436;-85
2023/01/12 00:17:21;;;;;;;;;;;;;;;;;;;;;
2023/01/12 00:19:50;;;;;;;;;1.25;1.00;;;;;20.95;46.74;101191.19;4997013;28;72242;-84
2023/01/12 00:22:15;;;;;;;;;2.00;0.75;;;;;20.97;46.80;101184.78;5060856;28;48030;-84
2023/01/12 00:24:43;;;;;;;;;2.00;0.00;;;;;21.09;46.98;101209.78;5069322;27;45645;-85
2023/01/12 00:27:36;;;;;;;;;6.75;1.00;;;;;21.00;47.00;101189.03;5063277;27;45456;-85
2023/01/12 00:30:01;;;;;;;;;1.00;1.00;;;;;20.92;47.37;101184.22;5065118;27;45602;-86
2023/01/12 00:32:30;;;;;;;;;1.00;0.00;;;;;20.93;47.03;101177.97;5058007;28;46759;-86
2023/01/12 00:34:56;;;;;;;;;2.00;0.50;;;;;20.98;46.83;101185.63;5069596;27;45715;-87
2023/01/12 00:37:21;;;;;;;;;2.00;0.00;;;;;21.12;47.12;101203.38;5064916;27;45322;-84
2023/01/12 00:39:57;;;;;;;;;3.75;2.00;;;;;21.21;46.86;101216.09;5073742;27;45558;-87
2023/01/12 00:45:30;;;;;;;;;;;;;;;;;;;;;
2023/01/12 00:47:59;;;;;;;;;2.25;0.00;;;;;21.23;47.43;101223.06;5100071;27;67807;-88
2023/01/12 00:50:35;;;;;;;;;0.75;0.00;;;;;21.17;47.33;101198.63;5069402;27;45937;-88
2023/01/12 00:53:43;;;;;;;;;;;;;;;;;;;;;
2023/01/12 00:56:08;;;;;;;;;1.00;0.00;;;;;21.10;47.01;101141.44;5065489;27;72794;-89
2023/01/12 00:58:36;;;;;;;;;1.00;0.00;;;;;21.06;46.94;101130.13;5079708;27;45493;-89
2023/01/12 01:01:17;;;;;;;;;0.50;0.00;;;;;21.26;46.90;101158.09;5063292;28;45522;-89
2023/01/12 01:03:45;;;;;;;;;1.25;1.25;;;;;21.27;47.01;101143.00;5073760;27;45414;-89
2023/01/12 01:06:47;;;;;;;;;1.75;0.00;;;;;21.27;47.23;101151.00;5059589;28;45427;-89
2023/01/12 01:09:13;;;;;;;;;1.00;1.00;;;;;21.11;46.91;101124.53;5070452;27;45209;-85
2023/01/12 01:11:44;;;;;;;;;0.00;0.00;;;;;21.29;46.95;101159.72;5071176;27;45760;-85
2023/01/12 01:15:00;;;;;;;;;1.00;0.00;;;;;21.28;46.79;101158.84;5076162;28;45419;-86
2023/01/12 01:17:27;;;;;;;;;0.00;0.00;;;;;21.17;47.06;101145.41;5068217;27;45596;-85
2023/01/12 01:19:53;;;;;;;;;0.00;0.00;;;;;21.21;46.92;101142.44;5088402;27;45452;-85
2023/01/12 01:22:18;;;;;;;;;0.00;0.00;;;;;21.05;47.19;101131.06;5078179;28;45329;-85
2023/01/12 01:24:43;;;;;;;;;0.00;0.00;;;;;21.18;47.05;101139.13;5070372;27;62525;-85
2023/01/12 01:27:09;;;;;;;;;0.50;0.00;;;;;21.30;46.68;101156.09;5071466;27;45379;-85
2023/01/12 01:29:34;;;;;;;;;0.50;0.00;;;;;21.18;47.04;101144.47;5059424;27;45676;-85
2023/01/12 01:32:00;;;;;;;;;1.00;1.00;;;;;21.17;47.02;101143.59;5081474;27;45244;-85
2023/01/12 01:34:25;;;;;;;;;2.75;0.00;;;;;21.22;47.00;101152.13;5068997;27;48317;-86
2023/01/12 01:36:50;;;;;;;;;0.00;0.00;;;;;21.16;46.65;101144.56;5073428;27;45432;-84
2023/01/12 01:39:16;;;;;;;;;2.00;0.00;;;;;21.20;46.74;101151.38;5075645;27;45239;-87
2023/01/12 01:41:41;;;;;;;;;0.00;0.00;;;;;21.12;46.69;101139.50;5072262;27;45510;-86
2023/01/12 01:44:29;;;;;;;;;2.00;0.00;;;;;21.31;46.77;101163.13;5072055;27;46635;-86
2023/01/12 01:47:25;;;;;;;;;1.00;0.00;;;;;21.15;47.18;101136.66;5066634;28;45511;-86
2023/01/12 01:49:53;;;;;;;;;0.75;0.00;;;;;21.19;47.00;101141.66;5057186;28;45482;-86
2023/01/12 01:52:28;;;;;;;;;0.00;0.00;;;;;21.10;46.93;101107.69;5073601;27;45355;-85
2023/01/12 01:55:02;;;;;;;;;1.00;0.00;;;;;21.18;47.46;101118.69;5066409;28;47097;-86
2023/01/12 01:57:32;;;;;;;;;0.00;0.00;;;;;21.22;47.40;101122.84;5065877;27;45788;-85
2023/01/12 01:59:59;;;;;;;;;0.00;0.00;;;;;21.31;47.05;101147.16;5088192;27;45470;-87
2023/01/12 02:02:25;;;;;;;;;1.00;0.00;;;;;21.29;47.02;101149.91;5059716;28;45515;-87
2023/01/12 02:04:52;;;;;;;;;0.00;0.00;;;;;21.32;47.19;101159.50;5054623;28;47366;-88
2023/01/12 02:07:18;;;;;;;;;0.50;0.50;;;;;21.15;47.27;101126.88;5094890;27;45497;-88
2023/01/12 02:09:43;;;;;;;;;0.00;0.00;;;;;21.11;47.16;101111.22;5077159;27;45763;-87
2023/01/12 02:17:52;;;;;;;;;0.00;0.00;;;;;21.33;46.91;101151.41;5072040;27;45550;-88
2023/01/12 02:20:36;;;;;;;;;1.00;0.00;;;;;21.35;46.98;101151.31;5103135;27;45405;-87
2023/01/12 02:23:43;;;;;;;;;3.50;0.00;;;;;21.22;46.83;101122.00;5101305;27;45840;-88
2023/01/12 02:26:28;;;;;;;;;1.50;0.00;;;;;21.35;47.30;101133.53;5065756;27;46334;-87
2023/01/12 02:29:00;;;;;;;;;2.25;0.25;;;;;21.30;46.97;101129.47;5076588;27;45403;-88
2023/01/12 02:32:03;;;;;;;;;1.00;0.00;;;;;21.36;46.99;101131.75;5095751;27;45326;-88
2023/01/12 02:34:42;;;;;;;;;0.00;0.00;;;;;21.35;46.85;101133.53;5066699;27;45520;-88
2023/01/12 02:37:31;;;;;;;;;1.50;0.00;;;;;21.22;46.94;101106.03;5097272;27;48207;-87
2023/01/12 02:39:58;;;;;;;;;1.75;0.00;;;;;21.36;46.95;101121.09;5065948;27;45767;-84
2023/01/12 02:42:41;;;;;;;;;0.00;0.00;;;;;21.32;46.99;101107.13;5075019;28;45295;-84
2023/01/12 02:45:18;;;;;;;;;3.25;0.50;;;;;21.23;46.71;101081.97;5074524;27;45294;-84
2023/01/12 02:47:56;;;;;;;;;0.50;0.50;;;;;21.23;46.76;101071.31;5078749;27;45556;-84
2023/01/12 02:50:54;;;;;;;;;0.00;0.00;;;;;21.37;47.19;101104.16;5072263;27;45723;-85
2023/01/12 02:53:25;;;;;;;;;0.00;0.00;;;;;21.36;47.26;101105.97;5063039;27;45447;-87
2023/01/12 02:55:51;;;;;;;;;0.25;0.00;;;;;21.23;47.05;101071.31;5066434;27;45635;-88
2023/01/12 02:58:19;;;;;;;;;2.75;0.00;;;;;21.31;47.21;101086.78;5061119;28;46951;-88
2023/01/12 03:00:47;;;;;;;;;2.00;0.00;;;;;21.14;46.79;101049.78;5090427;27;45642;-88
2023/01/12 03:03:14;;;;;;;;;2.00;0.00;;;;;21.22;46.81;101066.09;5075220;27;45356;-87
2023/01/12 03:05:41;;;;;;;;;2.75;1.00;;;;;21.28;46.79;101060.34;5074844;27;47043;-87
2023/01/12 03:08:10;;;;;;;;;0.25;0.00;;;;;21.32;47.10;101080.50;5079184;27;47905;-87
2023/01/12 03:10:43;;;;;;;;;0.00;0.00;;;;;21.17;46.98;101042.44;5102607;27;45892;-87
2023/01/12 03:13:15;;;;;;;;;2.50;0.00;;;;;21.18;46.70;101032.66;5095155;27;45441;-87
2023/01/12 03:15:44;;;;;;;;;0.75;0.00;;;;;21.29;46.73;101058.56;5062682;27;45689;-85
2023/01/12 03:18:35;;;;;;;;;1.00;0.75;;;;;21.37;46.66;101067.75;5052460;27;47286;-86
2023/01/12 03:21:25;;;;;;;;;1.00;0.00;;;;;21.11;46.86;101021.56;5071110;27;45293;-84
2023/01/12 03:24:02;;;;;;;;;2.75;1.00;;;;;21.24;46.91;101040.22;5070129;27;45474;-85
2023/01/12 03:26:29;;;;;;;;;0.00;0.00;;;;;21.36;46.99;101062.53;5071548;27;45559;-85
2023/01/12 03:32:33;;;;;;;;;0.00;0.00;;;;;21.28;46.94;101035.56;5048541;27;45543;-86
2023/01/12 03:35:01;;;;;;;;;1.00;0.00;;;;;21.41;47.46;101060.41;5057462;28;45507;-84
2023/01/12 03:37:32;;;;;;;;;0.00;0.00;;;;;21.40;47.18;101048.88;5085825;27;45383;-85
2023/01/12 03:40:07;;;;;;;;;1.00;0.00;;;;;21.41;46.97;101049.75;5069490;27;48291;-85
2023/01/12 03:42:53;;;;;;;;;5.75;0.00;;;;;21.35;47.46;101028.84;5088375;27;45556;-85
2023/01/12 03:45:28;;;;;;;;;1.75;0.00;;;;;21.34;47.58;101012.03;5100363;27;45477;-85
2023/01/12 03:47:58;;;;;;;;;0.00;0.00;;;;;21.21;47.28;101001.38;5073814;27;45525;-85
2023/01/12 03:50:27;;;;;;;;;1.00;1.00;;;;;21.28;47.26;101006.25;5089779;27;47598;-86
2023/01/12 03:52:54;;;;;;;;;2.50;0.00;;;;;21.32;47.33;101013.09;5076100;27;45439;-84
2023/01/12 03:55:22;;;;;;;;;1.75;0.50;;;;;21.45;47.13;101024.63;5077174;27;45444;-85
2023/01/12 03:57:48;;;;;;;;;0.25;0.00;;;;;21.34;47.39;101000.53;5059280;28;45557;-83
2023/01/12 04:00:16;;;;;;;;;1.50;0.00;;;;;21.37;47.37;100997.66;5052381;28;48025;-83
2023/01/12 04:02:44;;;;;;;;;0.00;0.00;;;;;21.29;47.03;100976.88;5082250;27;45442;-83
2023/01/12 04:05:11;;;;;;;;;2.50;0.25;;;;;21.29;47.17;100992.00;5089336;27;45999;-84
2023/01/12 04:07:36;;;;;;;;;0.00;0.00;;;;;21.24;47.11;100965.69;5092168;27;46020;-86
2023/01/12 04:10:02;;;;;;;;;1.00;0.00;;;;;21.47;47.48;100995.25;5100765;27;47809;-85
2023/01/12 04:12:27;;;;;;;;;1.00;0.00;;;;;21.33;47.18;100967.72;5065822;27;45228;-85
2023/01/12 04:14:53;;;;;;;;;1.50;0.00;;;;;21.24;47.19;100963.03;5066960;27;45885;-85
2023/01/12 04:17:22;;;;;;;;;0.00;0.00;;;;;21.33;47.26;100956.22;5070490;27;45458;-86
2023/01/12 04:19:48;;;;;;;;;1.75;0.00;;;;;21.47;46.79;100973.94;5071706;27;45621;-86
2023/01/12 04:24:59;;;;;;;;;1.50;0.25;;;;;21.37;46.96;100953.25;5073505;27;45458;-85
2023/01/12 04:27:24;;;;;;;;;1.75;0.00;;;;;21.47;47.27;100969.47;5084568;27;45743;-86
2023/01/12 04:29:50;;;;;;;;;1.00;0.00;;;;;21.47;47.26;100977.47;5066636;27;46654;-86
2023/01/12 04:32:15;;;;;;;;;0.00;0.00;;;;;21.43;47.29;100965.28;5071638;27;45449;-86
2023/01/12 04:34:40;;;;;;;;;0.00;0.00;;;;;21.32;46.50;100927.91;5065122;27;45779;-86
2023/01/12 04:37:06;;;;;;;;;0.00;0.00;;;;;21.26;46.80;100917.69;5103881;27;47038;-85
2023/01/12 04:39:31;;;;;;;;;0.00;0.00;;;;;21.26;46.84;100909.69;5068865;27;46119;-85
2023/01/12 04:41:57;;;;;;;;;0.25;0.00;;;;;21.43;46.98;100952.81;5069394;27;45331;-85
2023/01/12 04:44:22;;;;;;;;;0.00;0.00;;;;;21.47;46.72;100973.94;5074588;27;46877;-86
2023/01/12 04:46:48;;;;;;;;;2.25;0.00;;;;;21.41;46.71;100985.84;5055170;28;45594;-86
2023/01/12 04:49:14;;;;;;;;;0.50;0.00;;;;;21.30;47.08;100959.09;5076273;27;46405;-85
2023/01/12 04:51:39;;;;;;;;;0.00;0.00;;;;;21.21;46.84;100931.28;5064828;27;45316;-84
2023/01/12 04:54:05;;;;;;;;;2.00;0.00;;;;;21.34;46.85;100948.16;5100451;27;46866;-86
2023/01/12 04:56:30;;;;;;;;;0.75;0.00;;;;;21.46;47.46;100973.13;5071760;27;45315;-86
2023/01/12 04:59:00;;;;;;;;;0.75;0.00;;;;;21.37;47.02;100955.06;5066586;27;47191;-86
2023/01/12 05:01:28;;;;;;;;;0.00;0.00;;;;;21.42;47.10;100960.91;5067466;27;45516;-85
2023/01/12 05:03:59;;;;;;;;;0.75;0.00;;;;;21.47;47.63;100957.97;5071808;27;45366;-86
2023/01/12 05:06:25;;;;;;;;;0.00;0.00;;;;;21.22;47.47;100906.41;5066590;28;45483;-85
2023/01/12 05:11:34;;;;;;;;;1.00;1.00;;;;;21.35;47.04;100922.38;5071961;27;45687;-86
2023/01/12 05:14:02;;;;;;;;;1.75;0.00;;;;;21.43;47.32;100941.34;5061868;27;45422;-84
2023/01/12 05:16:46;;;;;;;;;1.75;0.00;;;;;21.37;47.11;100931.09;5054883;28;45636;-84
2023/01/12 05:19:12;;;;;;;;;0.75;0.00;;;;;21.31;47.13;100911.06;5069725;27;46344;-85
2023/01/12 05:21:37;;;;;;;;;0.50;0.00;;;;;21.41;47.71;100938.78;5087371;27;45395;-85
2023/01/12 05:24:03;;;;;;;;;0.00;0.00;;;;;21.48;47.23;100933.91;5065565;27;45500;-85
2023/01/12 05:26:28;;;;;;;;;0.25;0.00;;;;;21.50;47.70;100924.00;5069961;27;45422;-85
2023/01/12 05:28:54;;;;;;;;;3.00;0.00;;;;;21.40;47.58;100915.75;5074929;27;45288;-85
2023/01/12 05:31:19;;;;;;;;;0.00;0.00;;;;;21.27;47.47;100901.63;5065097;27;45323;-87
2023/01/12 05:33:45;;;;;;;;;2.75;0.00;;;;;21.32;47.43;100918.13;5074423;27;45361;-86
2023/01/12 05:36:12;;;;;;;;;0.00;0.00;;;;;21.45;47.53;100915.44;5063876;27;45491;-87
2023/01/12 05:38:38;;;;;;;;;0.00;0.00;;;;;21.38;47.15;100908.84;5068177;27;47400;-86
2023/01/12 05:41:06;;;;;;;;;0.50;0.00;;;;;21.31;47.33;100896.94;5068584;27;45610;-86
2023/01/12 05:43:50;;;;;;;;;0.00;0.00;;;;;21.45;47.82;100931.41;5082575;27;45477;-87
2023/01/12 05:46:32;;;;;;;;;2.50;0.50;;;;;21.37;47.31;100915.13;5059098;27;45987;-86
2023/01/12 05:48:57;;;;;;;;;1.00;0.00;;;;;21.54;47.34;100927.28;5052600;28;48334;-86
2023/01/12 05:51:25;;;;;;;;;0.00;0.00;;;;;21.36;47.47;100918.75;5086789;27;48355;-86
2023/01/12 05:53:50;;;;;;;;;1.00;0.00;;;;;21.40;47.09;100931.72;5069146;27;45522;-86
2023/01/12 05:56:16;;;;;;;;;0.00;0.00;;;;;21.53;47.13;100942.44;5081467;27;45652;-85
2023/01/12 05:58:41;;;;;;;;;0.00;0.00;;;;;21.54;47.03;100951.25;5105060;27;48148;-86
2023/01/12 06:01:10;;;;;;;;;0.00;0.00;;;;;21.41;47.25;100930.78;5075553;28;45573;-86
2023/01/12 06:03:36;;;;;;;;;0.00;0.00;;;;;21.36;47.36;100916.94;5062783;27;45420;-88
2023/01/12 06:06:02;;;;;;;;;1.00;0.00;;;;;21.36;47.51;100914.28;5073837;27;45434;-89
2023/01/12 06:08:27;;;;;;;;;1.50;0.00;;;;;21.53;46.95;100944.22;5081242;27;47172;-86
2023/01/12 06:10:53;;;;;;;;;0.25;0.00;;;;;21.26;47.06;100897.22;5090980;27;45586;-86
2023/01/12 06:16:04;;;;;;;;;1.00;0.25;;;;;21.30;46.91;100889.88;5074801;27;45538;-86
2023/01/12 06:18:38;;;;;;;;;1.50;0.00;;;;;21.38;47.02;100911.50;5106890;27;48153;-86
2023/01/12 06:21:05;;;;;;;;;4.25;0.00;;;;;21.53;46.99;100931.78;5074266;27;45727;-85
2023/01/12 06:23:31;;;;;;;;;2.00;0.00;;;;;21.42;47.25;100915.66;5062871;27;45474;-87
2023/01/12 06:26:00;;;;;;;;;0.75;0.00;;;;;21.35;47.36;100893.06;5081027;27;45506;-86
2023/01/12 06:28:26;;;;;;;;;0.50;0.00;;;;;21.29;47.12;100907.69;5074244;27;47960;-85
2023/01/12 06:31:00;;;;;;;;;2.75;0.00;;;;;21.51;47.63;100940.81;5067390;27;45977;-81
2023/01/12 06:33:26;;;;;;;;;1.75;0.00;;;;;21.51;47.31;100947.00;5080451;27;45520;-91
2023/01/12 06:36:02;;;;;;;;;0.00;0.00;;;;;21.24;45.31;100915.13;5069681;28;44809;-86
2023/01/12 06:38:30;;;;;;;;;2.50;0.00;;;;;21.02;45.06;100907.78;5071598;28;48216;-88
2023/01/12 06:44:09;;;;;;;;;1.00;0.00;;;;;20.73;44.59;100953.13;5082029;27;45362;-87
2023/01/12 06:46:34;;;;;;;;;5.75;0.00;;;;;20.43;44.76;100935.56;5079947;27;45412;-88
2023/01/12 07:06:09;;;;;;;;;1.00;0.00;;;;;19.26;44.76;100929.56;5080840;27;45533;-91
2023/01/12 07:12:30;;;;;;;;;0.00;0.00;;;;;19.00;45.24;100917.00;5046936;27;45423;-90
2023/01/12 07:14:58;;;;;;;;;5.25;2.25;;;;;18.81;45.17;100902.16;5093834;27;48670;-89
2023/01/12 07:18:01;;;;;;;;;0.00;0.00;;;;;18.93;45.30;100921.84;5053994;28;45463;-90
2023/01/12 07:20:31;;;;;;;;;1.00;0.00;;;;;18.66;45.46;100881.84;5074425;28;45375;-91
2023/01/12 07:23:01;;;;;;;;;0.00;0.00;;;;;18.59;45.76;100894.59;5055373;28;44935;-89
2023/01/12 07:25:38;;;;;;;;;0.00;0.00;;;;;18.43;45.69;100884.03;5070159;28;47255;-88
2023/01/12 07:28:19;;;;;;;;;1.50;0.00;;;;;18.65;46.20;100926.06;5084251;27;45542;-90
2023/01/12 07:34:11;;;;;;;;;0.50;0.50;;;;;18.67;46.95;100908.25;4986661;28;45136;-89
2023/01/12 07:36:50;;;;;;;;;0.00;0.00;;;;;18.82;47.07;100913.66;4952426;28;47741;-92
2023/01/12 07:48:39;;;;;;;;;0.25;0.25;;;;;19.08;47.92;100886.41;5008707;28;45961;-93
2023/01/12 07:51:12;;;;;;;;;1.00;0.25;;;;;19.44;47.99;100926.72;5013930;28;45497;-91
2023/01/12 18:36:35;;;;;;;;;2.00;0.75;;;;;20.54;45.98;100559.13;4878354;29;45679;-89
2023/01/12 18:40:11;;;;;;;;;0.00;0.00;;;;;20.55;46.05;100561.66;4878333;29;45507;-92
2023/01/12 19:03:40;;;;;;;;;8.25;6.00;;;;;20.62;48.24;100572.75;4765371;29;45657;-87
2023/01/12 19:29:50;;;;;;;;;11.50;4.25;;;;;20.45;50.36;100529.59;4692111;30;45555;-87
2023/01/12 19:39:49;;;;;;;;;8.00;3.00;;;;;20.64;50.60;100553.06;4708758;30;45468;-91
